sensor_id;sensor_type;location;lat;lon;timestamp;P1;durP1;ratioP1;P2;durP2;ratioP2
20770;SDS011;10545;36.536;23.064;2023-08-24T08:56:46;9.47;;;8.80;;
20770;SDS011;10545;36.536;23.064;2023-08-24T08:59:13;9.57;;;8.93;;
20770;SDS011;10545;36.536;23.064;2023-08-24T09:01:40;9.87;;;9.13;;
20770;SDS011;10545;36.536;23.064;2023-08-24T09:04:09;9.13;;;8.53;;
20770;SDS011;10545;36.536;23.064;2023-08-24T09:06:37;9.77;;;9.07;;
20770;SDS011;10545;36.536;23.064;2023-08-24T09:09:04;10.00;;;9.30;;
20770;SDS011;10545;36.536;23.064;2023-08-24T09:11:30;9.00;;;8.40;;
20770;SDS011;10545;36.536;23.064;2023-08-24T09:13:56;8.43;;;7.93;;
20770;SDS011;10545;36.536;23.064;2023-08-24T09:16:28;10.23;;;9.57;;
20770;SDS011;10545;36.536;23.064;2023-08-24T09:18:55;9.57;;;8.77;;
20770;SDS011;10545;36.536;23.064;2023-08-24T09:21:21;9.50;;;8.90;;
20770;SDS011;10545;36.536;23.064;2023-08-24T09:23:54;9.00;;;8.40;;
20770;SDS011;10545;36.536;23.064;2023-08-24T09:26:34;9.33;;;8.73;;
20770;SDS011;10545;36.536;23.064;2023-08-24T09:29:11;9.83;;;8.83;;
20770;SDS011;10545;36.536;23.064;2023-08-24T09:31:39;9.00;;;8.20;;
20770;SDS011;10545;36.536;23.064;2023-08-24T09:34:06;9.13;;;8.53;;
20770;SDS011;10545;36.536;23.064;2023-08-24T09:36:35;9.00;;;8.20;;
20770;SDS011;10545;36.536;23.064;2023-08-24T09:39:02;8.40;;;7.90;;
20770;SDS011;10545;36.536;23.064;2023-08-24T09:44:05;9.50;;;8.90;;
20770;SDS011;10545;36.536;23.064;2023-08-24T09:46:31;9.50;;;8.80;;
20770;SDS011;10545;36.536;23.064;2023-08-24T09:48:57;9.30;;;8.60;;
20770;SDS011;10545;36.536;23.064;2023-08-24T09:51:26;9.40;;;8.80;;
20770;SDS011;10545;36.536;23.064;2023-08-24T09:53:52;10.30;;;9.53;;
20770;SDS011;10545;36.536;23.064;2023-08-24T09:56:26;8.60;;;8.00;;
20770;SDS011;10545;36.536;23.064;2023-08-24T09:58:55;9.67;;;8.77;;
20770;SDS011;10545;36.536;23.064;2023-08-24T10:01:26;10.33;;;9.53;;
20770;SDS011;10545;36.536;23.064;2023-08-24T10:03:52;9.77;;;9.13;;
20770;SDS011;10545;36.536;23.064;2023-08-24T10:06:23;10.10;;;9.40;;
20770;SDS011;10545;36.536;23.064;2023-08-24T10:08:54;9.07;;;8.53;;
20770;SDS011;10545;36.536;23.064;2023-08-24T10:11:28;9.33;;;8.73;;
20770;SDS011;10545;36.536;23.064;2023-08-24T10:16:32;9.40;;;8.80;;
20770;SDS011;10545;36.536;23.064;2023-08-24T10:19:02;10.03;;;9.30;;
20770;SDS011;10545;36.536;23.064;2023-08-24T10:21:29;9.80;;;9.10;;
20770;SDS011;10545;36.536;23.064;2023-08-24T10:23:58;10.43;;;9.73;;
20770;SDS011;10545;36.536;23.064;2023-08-24T10:26:27;10.60;;;9.83;;
20770;SDS011;10545;36.536;23.064;2023-08-24T10:28:53;9.77;;;9.07;;
20770;SDS011;10545;36.536;23.064;2023-08-24T10:31:20;17.47;;;16.27;;
20770;SDS011;10545;36.536;23.064;2023-08-24T10:33:47;10.17;;;9.40;;
20770;SDS011;10545;36.536;23.064;2023-08-24T10:36:14;9.63;;;8.93;;
20770;SDS011;10545;36.536;23.064;2023-08-24T10:38:42;11.43;;;10.43;;
20770;SDS011;10545;36.536;23.064;2023-08-24T10:41:08;10.13;;;9.40;;
20770;SDS011;10545;36.536;23.064;2023-08-24T10:43:38;10.67;;;9.57;;
20770;SDS011;10545;36.536;23.064;2023-08-24T10:46:14;9.33;;;8.67;;
20770;SDS011;10545;36.536;23.064;2023-08-24T10:51:16;9.43;;;8.83;;
20770;SDS011;10545;36.536;23.064;2023-08-24T10:53:45;9.63;;;8.90;;
20770;SDS011;10545;36.536;23.064;2023-08-24T10:56:14;10.27;;;9.57;;
20770;SDS011;10545;36.536;23.064;2023-08-24T10:58:46;10.03;;;9.13;;
20770;SDS011;10545;36.536;23.064;2023-08-24T11:01:19;8.93;;;8.33;;
20770;SDS011;10545;36.536;23.064;2023-08-24T11:03:54;9.37;;;8.73;;
20770;SDS011;10545;36.536;23.064;2023-08-24T11:06:21;9.70;;;9.00;;
20770;SDS011;10545;36.536;23.064;2023-08-24T11:08:49;9.60;;;9.00;;
20770;SDS011;10545;36.536;23.064;2023-08-24T11:11:32;8.43;;;7.83;;
20770;SDS011;10545;36.536;23.064;2023-08-24T11:14:17;10.03;;;9.20;;
20770;SDS011;10545;36.536;23.064;2023-08-24T11:16:47;9.70;;;8.90;;
20770;SDS011;10545;36.536;23.064;2023-08-24T11:19:14;9.40;;;8.67;;
20770;SDS011;10545;36.536;23.064;2023-08-24T11:21:44;10.27;;;9.33;;
20770;SDS011;10545;36.536;23.064;2023-08-24T11:24:14;11.20;;;8.47;;
20770;SDS011;10545;36.536;23.064;2023-08-24T11:26:48;9.90;;;9.20;;
20770;SDS011;10545;36.536;23.064;2023-08-24T11:29:14;8.83;;;8.23;;
20770;SDS011;10545;36.536;23.064;2023-08-24T11:31:43;9.40;;;8.80;;
20770;SDS011;10545;36.536;23.064;2023-08-24T11:34:09;9.20;;;8.60;;
20770;SDS011;10545;36.536;23.064;2023-08-24T11:36:44;8.80;;;8.23;;
20770;SDS011;10545;36.536;23.064;2023-08-24T11:39:17;9.57;;;8.97;;
20770;SDS011;10545;36.536;23.064;2023-08-24T11:41:55;8.60;;;8.00;;
20770;SDS011;10545;36.536;23.064;2023-08-24T11:44:45;9.93;;;9.13;;
20770;SDS011;10545;36.536;23.064;2023-08-24T11:47:15;9.27;;;8.67;;
20770;SDS011;10545;36.536;23.064;2023-08-24T11:49:41;9.17;;;8.57;;
20770;SDS011;10545;36.536;23.064;2023-08-24T11:52:08;9.67;;;8.97;;
20770;SDS011;10545;36.536;23.064;2023-08-24T11:54:35;9.40;;;8.70;;
20770;SDS011;10545;36.536;23.064;2023-08-24T11:57:07;9.40;;;8.67;;
20770;SDS011;10545;36.536;23.064;2023-08-24T11:59:37;9.53;;;8.93;;
20770;SDS011;10545;36.536;23.064;2023-08-24T12:02:04;9.30;;;8.70;;
20770;SDS011;10545;36.536;23.064;2023-08-24T12:04:40;8.90;;;8.20;;
20770;SDS011;10545;36.536;23.064;2023-08-24T12:07:11;9.27;;;8.57;;
20770;SDS011;10545;36.536;23.064;2023-08-24T12:09:38;8.90;;;8.27;;
20770;SDS011;10545;36.536;23.064;2023-08-24T12:12:05;8.30;;;7.80;;
20770;SDS011;10545;36.536;23.064;2023-08-24T12:14:43;9.50;;;8.70;;
20770;SDS011;10545;36.536;23.064;2023-08-24T12:17:11;9.07;;;8.47;;
20770;SDS011;10545;36.536;23.064;2023-08-24T12:20:21;9.43;;;8.83;;
20770;SDS011;10545;36.536;23.064;2023-08-24T12:22:31;8.77;;;8.07;;
20770;SDS011;10545;36.536;23.064;2023-08-24T12:24:57;8.53;;;8.03;;
20770;SDS011;10545;36.536;23.064;2023-08-24T12:27:24;8.50;;;7.70;;
20770;SDS011;10545;36.536;23.064;2023-08-24T12:29:53;8.20;;;7.70;;
20770;SDS011;10545;36.536;23.064;2023-08-24T12:32:20;8.57;;;8.07;;
20770;SDS011;10545;36.536;23.064;2023-08-24T12:34:48;9.10;;;8.50;;
20770;SDS011;10545;36.536;23.064;2023-08-24T12:37:17;8.87;;;8.27;;
20770;SDS011;10545;36.536;23.064;2023-08-24T12:39:43;11.70;;;8.50;;
20770;SDS011;10545;36.536;23.064;2023-08-24T12:42:09;8.30;;;7.80;;
20770;SDS011;10545;36.536;23.064;2023-08-24T12:44:35;9.10;;;8.40;;
20770;SDS011;10545;36.536;23.064;2023-08-24T12:47:02;8.57;;;7.87;;
20770;SDS011;10545;36.536;23.064;2023-08-24T12:49:28;7.60;;;7.10;;
20770;SDS011;10545;36.536;23.064;2023-08-24T12:51:54;7.50;;;7.00;;
20770;SDS011;10545;36.536;23.064;2023-08-24T12:54:20;7.60;;;7.00;;
20770;SDS011;10545;36.536;23.064;2023-08-24T12:56:47;9.13;;;8.03;;
20770;SDS011;10545;36.536;23.064;2023-08-24T12:59:13;8.00;;;7.37;;
20770;SDS011;10545;36.536;23.064;2023-08-24T13:01:39;8.27;;;7.47;;
20770;SDS011;10545;36.536;23.064;2023-08-24T13:04:05;7.97;;;7.37;;
20770;SDS011;10545;36.536;23.064;2023-08-24T13:06:32;9.90;;;7.63;;
20770;SDS011;10545;36.536;23.064;2023-08-24T13:08:59;8.97;;;8.07;;
20770;SDS011;10545;36.536;23.064;2023-08-24T13:11:25;7.20;;;6.70;;
20770;SDS011;10545;36.536;23.064;2023-08-24T13:13:51;7.13;;;6.73;;
20770;SDS011;10545;36.536;23.064;2023-08-24T13:16:17;8.70;;;7.83;;
20770;SDS011;10545;36.536;23.064;2023-08-24T13:18:43;7.13;;;6.60;;
20770;SDS011;10545;36.536;23.064;2023-08-24T13:21:09;7.33;;;6.93;;
20770;SDS011;10545;36.536;23.064;2023-08-24T13:23:35;7.03;;;6.53;;
20770;SDS011;10545;36.536;23.064;2023-08-24T13:26:01;7.10;;;6.50;;
20770;SDS011;10545;36.536;23.064;2023-08-24T13:28:27;7.50;;;6.73;;
20770;SDS011;10545;36.536;23.064;2023-08-24T13:30:54;7.13;;;6.63;;
20770;SDS011;10545;36.536;23.064;2023-08-24T13:33:21;6.93;;;6.43;;
20770;SDS011;10545;36.536;23.064;2023-08-24T13:35:47;7.63;;;7.13;;
20770;SDS011;10545;36.536;23.064;2023-08-24T13:38:13;12.97;;;12.03;;
20770;SDS011;10545;36.536;23.064;2023-08-24T13:40:39;11.27;;;9.80;;
20770;SDS011;10545;36.536;23.064;2023-08-24T13:43:05;12.80;;;11.70;;
20770;SDS011;10545;36.536;23.064;2023-08-24T13:45:31;12.87;;;11.97;;
20770;SDS011;10545;36.536;23.064;2023-08-24T13:47:59;12.47;;;11.57;;
20770;SDS011;10545;36.536;23.064;2023-08-24T13:50:25;11.83;;;11.13;;
20770;SDS011;10545;36.536;23.064;2023-08-24T13:52:52;13.33;;;12.53;;
20770;SDS011;10545;36.536;23.064;2023-08-24T13:55:18;13.33;;;12.03;;
20770;SDS011;10545;36.536;23.064;2023-08-24T13:57:44;12.43;;;11.63;;
20770;SDS011;10545;36.536;23.064;2023-08-24T14:00:10;13.80;;;12.80;;
20770;SDS011;10545;36.536;23.064;2023-08-24T14:02:37;13.13;;;12.33;;
20770;SDS011;10545;36.536;23.064;2023-08-24T14:05:03;14.77;;;13.77;;
20770;SDS011;10545;36.536;23.064;2023-08-24T14:07:34;15.60;;;14.30;;
20770;SDS011;10545;36.536;23.064;2023-08-24T14:10:01;15.73;;;14.73;;
20770;SDS011;10545;36.536;23.064;2023-08-24T14:12:29;15.63;;;14.40;;
20770;SDS011;10545;36.536;23.064;2023-08-24T14:14:55;16.20;;;15.00;;
20770;SDS011;10545;36.536;23.064;2023-08-24T14:17:21;16.80;;;15.43;;
20770;SDS011;10545;36.536;23.064;2023-08-24T14:19:47;17.53;;;16.43;;
20770;SDS011;10545;36.536;23.064;2023-08-24T14:22:13;17.20;;;16.03;;
20770;SDS011;10545;36.536;23.064;2023-08-24T14:24:39;16.97;;;15.77;;
20770;SDS011;10545;36.536;23.064;2023-08-24T14:27:05;16.97;;;16.00;;
20770;SDS011;10545;36.536;23.064;2023-08-24T14:29:32;17.13;;;15.93;;
20770;SDS011;10545;36.536;23.064;2023-08-24T14:31:58;16.60;;;15.50;;
20770;SDS011;10545;36.536;23.064;2023-08-24T14:34:24;17.83;;;16.63;;
20770;SDS011;10545;36.536;23.064;2023-08-24T14:36:50;17.47;;;16.17;;
20770;SDS011;10545;36.536;23.064;2023-08-24T14:39:16;18.03;;;16.60;;
20770;SDS011;10545;36.536;23.064;2023-08-24T14:41:42;18.13;;;16.83;;
20770;SDS011;10545;36.536;23.064;2023-08-24T14:44:08;18.83;;;17.70;;
20770;SDS011;10545;36.536;23.064;2023-08-24T14:46:34;19.60;;;18.37;;
20770;SDS011;10545;36.536;23.064;2023-08-24T14:49:00;18.77;;;17.50;;
20770;SDS011;10545;36.536;23.064;2023-08-24T14:51:26;18.97;;;17.43;;
20770;SDS011;10545;36.536;23.064;2023-08-24T14:53:52;17.60;;;16.50;;
20770;SDS011;10545;36.536;23.064;2023-08-24T14:56:18;19.43;;;18.23;;
20770;SDS011;10545;36.536;23.064;2023-08-24T14:58:45;19.30;;;18.10;;
20770;SDS011;10545;36.536;23.064;2023-08-24T15:01:11;18.23;;;17.03;;
20770;SDS011;10545;36.536;23.064;2023-08-24T15:03:37;19.73;;;18.33;;
20770;SDS011;10545;36.536;23.064;2023-08-24T15:06:04;19.50;;;18.20;;
20770;SDS011;10545;36.536;23.064;2023-08-24T15:08:32;20.27;;;18.87;;
20770;SDS011;10545;36.536;23.064;2023-08-24T15:11:00;20.40;;;19.00;;
20770;SDS011;10545;36.536;23.064;2023-08-24T15:13:28;19.20;;;17.90;;
20770;SDS011;10545;36.536;23.064;2023-08-24T15:15:55;19.47;;;18.27;;
20770;SDS011;10545;36.536;23.064;2023-08-24T15:18:23;18.90;;;17.70;;
20770;SDS011;10545;36.536;23.064;2023-08-24T15:20:51;19.00;;;17.70;;
20770;SDS011;10545;36.536;23.064;2023-08-24T15:23:21;19.30;;;17.77;;
20770;SDS011;10545;36.536;23.064;2023-08-24T15:25:53;19.23;;;17.87;;
20770;SDS011;10545;36.536;23.064;2023-08-24T15:28:21;20.63;;;19.20;;
20770;SDS011;10545;36.536;23.064;2023-08-24T15:30:48;19.87;;;18.27;;
20770;SDS011;10545;36.536;23.064;2023-08-24T15:33:14;19.50;;;18.20;;
20770;SDS011;10545;36.536;23.064;2023-08-24T15:35:41;20.37;;;19.07;;
20770;SDS011;10545;36.536;23.064;2023-08-24T15:38:10;20.50;;;19.00;;
20770;SDS011;10545;36.536;23.064;2023-08-24T15:40:37;19.73;;;18.43;;
20770;SDS011;10545;36.536;23.064;2023-08-24T15:43:04;19.20;;;18.00;;
20770;SDS011;10545;36.536;23.064;2023-08-24T15:45:31;18.77;;;17.60;;
20770;SDS011;10545;36.536;23.064;2023-08-24T15:47:58;20.17;;;18.87;;
20770;SDS011;10545;36.536;23.064;2023-08-24T15:50:25;18.60;;;17.40;;
20770;SDS011;10545;36.536;23.064;2023-08-24T15:52:52;19.63;;;18.30;;
20770;SDS011;10545;36.536;23.064;2023-08-24T15:55:32;20.80;;;19.07;;
20770;SDS011;10545;36.536;23.064;2023-08-24T15:57:58;20.07;;;18.60;;
20770;SDS011;10545;36.536;23.064;2023-08-24T16:00:26;21.33;;;19.57;;
20770;SDS011;10545;36.536;23.064;2023-08-24T16:02:53;21.97;;;20.47;;
20770;SDS011;10545;36.536;23.064;2023-08-24T16:05:19;21.70;;;20.23;;
20770;SDS011;10545;36.536;23.064;2023-08-24T16:07:45;21.43;;;20.00;;
20770;SDS011;10545;36.536;23.064;2023-08-24T16:10:11;23.03;;;21.27;;
20770;SDS011;10545;36.536;23.064;2023-08-24T16:12:37;23.93;;;22.13;;
20770;SDS011;10545;36.536;23.064;2023-08-24T16:15:03;23.70;;;22.10;;
20770;SDS011;10545;36.536;23.064;2023-08-24T16:17:30;22.90;;;21.47;;
20770;SDS011;10545;36.536;23.064;2023-08-24T16:19:57;24.07;;;22.40;;
20770;SDS011;10545;36.536;23.064;2023-08-24T16:22:23;25.20;;;23.50;;
20770;SDS011;10545;36.536;23.064;2023-08-24T16:24:49;25.33;;;23.63;;
20770;SDS011;10545;36.536;23.064;2023-08-24T16:27:15;24.00;;;22.60;;
20770;SDS011;10545;36.536;23.064;2023-08-24T16:29:41;25.03;;;23.20;;
20770;SDS011;10545;36.536;23.064;2023-08-24T16:32:07;25.50;;;23.70;;
20770;SDS011;10545;36.536;23.064;2023-08-24T16:34:33;24.17;;;22.03;;
20770;SDS011;10545;36.536;23.064;2023-08-24T16:36:59;25.23;;;23.23;;
20770;SDS011;10545;36.536;23.064;2023-08-24T16:39:27;24.70;;;22.43;;
20770;SDS011;10545;36.536;23.064;2023-08-24T16:41:55;25.00;;;23.07;;
20770;SDS011;10545;36.536;23.064;2023-08-24T16:44:21;25.37;;;23.67;;
20770;SDS011;10545;36.536;23.064;2023-08-24T16:46:47;24.50;;;22.57;;
20770;SDS011;10545;36.536;23.064;2023-08-24T16:49:13;25.03;;;23.20;;
20770;SDS011;10545;36.536;23.064;2023-08-24T16:51:39;26.23;;;24.50;;
20770;SDS011;10545;36.536;23.064;2023-08-24T16:54:05;26.57;;;24.67;;
20770;SDS011;10545;36.536;23.064;2023-08-24T16:56:31;25.43;;;23.70;;
20770;SDS011;10545;36.536;23.064;2023-08-24T16:58:57;27.23;;;25.00;;
20770;SDS011;10545;36.536;23.064;2023-08-24T17:01:23;25.93;;;24.10;;
20770;SDS011;10545;36.536;23.064;2023-08-24T17:03:49;25.17;;;23.20;;
20770;SDS011;10545;36.536;23.064;2023-08-24T17:06:15;38.20;;;31.33;;
20770;SDS011;10545;36.536;23.064;2023-08-24T17:08:41;27.50;;;25.50;;
20770;SDS011;10545;36.536;23.064;2023-08-24T17:11:08;32.60;;;28.37;;
20770;SDS011;10545;36.536;23.064;2023-08-24T17:13:34;29.87;;;27.13;;
20770;SDS011;10545;36.536;23.064;2023-08-24T17:16:00;31.80;;;29.13;;
20770;SDS011;10545;36.536;23.064;2023-08-24T17:18:26;33.70;;;30.60;;
20770;SDS011;10545;36.536;23.064;2023-08-24T17:20:52;29.67;;;26.93;;
20770;SDS011;10545;36.536;23.064;2023-08-24T17:23:18;31.87;;;29.33;;
20770;SDS011;10545;36.536;23.064;2023-08-24T17:25:44;25.43;;;23.73;;
20770;SDS011;10545;36.536;23.064;2023-08-24T17:28:11;25.67;;;23.80;;
20770;SDS011;10545;36.536;23.064;2023-08-24T17:30:37;29.97;;;27.07;;
20770;SDS011;10545;36.536;23.064;2023-08-24T17:33:04;30.07;;;27.57;;
20770;SDS011;10545;36.536;23.064;2023-08-24T17:35:30;32.77;;;29.70;;
20770;SDS011;10545;36.536;23.064;2023-08-24T17:37:56;31.80;;;29.07;;
20770;SDS011;10545;36.536;23.064;2023-08-24T17:40:24;28.57;;;26.57;;
20770;SDS011;10545;36.536;23.064;2023-08-24T17:42:50;31.37;;;28.87;;
20770;SDS011;10545;36.536;23.064;2023-08-24T17:45:16;28.97;;;26.80;;
20770;SDS011;10545;36.536;23.064;2023-08-24T17:47:47;26.80;;;25.00;;
20770;SDS011;10545;36.536;23.064;2023-08-24T17:50:17;29.80;;;27.17;;
20770;SDS011;10545;36.536;23.064;2023-08-24T17:52:44;34.47;;;30.87;;
20770;SDS011;10545;36.536;23.064;2023-08-24T17:55:10;32.53;;;29.63;;
20770;SDS011;10545;36.536;23.064;2023-08-24T17:57:36;35.80;;;30.80;;
20770;SDS011;10545;36.536;23.064;2023-08-24T18:00:02;34.03;;;30.40;;
20770;SDS011;10545;36.536;23.064;2023-08-24T18:02:30;31.33;;;28.27;;
20770;SDS011;10545;36.536;23.064;2023-08-24T18:04:57;36.07;;;32.40;;
20770;SDS011;10545;36.536;23.064;2023-08-24T18:07:23;43.77;;;40.17;;
20770;SDS011;10545;36.536;23.064;2023-08-24T18:09:49;48.67;;;44.77;;
20770;SDS011;10545;36.536;23.064;2023-08-24T18:12:15;61.67;;;56.77;;
20770;SDS011;10545;36.536;23.064;2023-08-24T18:14:42;45.67;;;41.67;;
20770;SDS011;10545;36.536;23.064;2023-08-24T18:17:08;40.33;;;36.33;;
20770;SDS011;10545;36.536;23.064;2023-08-24T18:19:34;30.57;;;27.93;;
20770;SDS011;10545;36.536;23.064;2023-08-24T18:22:00;32.73;;;29.80;;
20770;SDS011;10545;36.536;23.064;2023-08-24T18:24:26;30.50;;;27.97;;
20770;SDS011;10545;36.536;23.064;2023-08-24T18:26:53;28.77;;;26.67;;
20770;SDS011;10545;36.536;23.064;2023-08-24T18:29:23;31.30;;;28.90;;
20770;SDS011;10545;36.536;23.064;2023-08-24T18:31:49;27.83;;;25.93;;
20770;SDS011;10545;36.536;23.064;2023-08-24T18:34:16;27.70;;;25.90;;
20770;SDS011;10545;36.536;23.064;2023-08-24T18:36:42;27.33;;;25.23;;
20770;SDS011;10545;36.536;23.064;2023-08-24T18:39:08;28.03;;;25.90;;
20770;SDS011;10545;36.536;23.064;2023-08-24T18:41:35;30.37;;;27.77;;
20770;SDS011;10545;36.536;23.064;2023-08-24T18:44:01;27.53;;;25.43;;
20770;SDS011;10545;36.536;23.064;2023-08-24T18:46:28;29.80;;;27.43;;
20770;SDS011;10545;36.536;23.064;2023-08-24T18:48:54;33.97;;;30.77;;
20770;SDS011;10545;36.536;23.064;2023-08-24T18:51:21;27.67;;;25.77;;
20770;SDS011;10545;36.536;23.064;2023-08-24T18:53:47;29.07;;;26.57;;
20770;SDS011;10545;36.536;23.064;2023-08-24T18:56:14;46.37;;;37.70;;
20770;SDS011;10545;36.536;23.064;2023-08-24T18:58:42;46.57;;;41.93;;
20770;SDS011;10545;36.536;23.064;2023-08-24T19:01:12;54.90;;;49.40;;
20770;SDS011;10545;36.536;23.064;2023-08-24T19:03:43;35.47;;;32.40;;
20770;SDS011;10545;36.536;23.064;2023-08-24T19:06:10;31.37;;;28.57;;
20770;SDS011;10545;36.536;23.064;2023-08-24T19:08:36;30.07;;;27.47;;
20770;SDS011;10545;36.536;23.064;2023-08-24T19:11:03;30.90;;;28.40;;
20770;SDS011;10545;36.536;23.064;2023-08-24T19:13:29;34.10;;;31.00;;
20770;SDS011;10545;36.536;23.064;2023-08-24T19:15:59;33.07;;;30.30;;
20770;SDS011;10545;36.536;23.064;2023-08-24T19:18:27;30.57;;;27.87;;
20770;SDS011;10545;36.536;23.064;2023-08-24T19:20:53;32.97;;;29.83;;
20770;SDS011;10545;36.536;23.064;2023-08-24T19:23:20;43.17;;;38.77;;
20770;SDS011;10545;36.536;23.064;2023-08-24T19:25:46;29.93;;;27.47;;
20770;SDS011;10545;36.536;23.064;2023-08-24T19:28:13;28.30;;;26.10;;
20770;SDS011;10545;36.536;23.064;2023-08-24T19:30:39;29.60;;;27.00;;
20770;SDS011;10545;36.536;23.064;2023-08-24T19:33:06;26.57;;;24.47;;
20770;SDS011;10545;36.536;23.064;2023-08-24T19:35:33;27.20;;;24.70;;
20770;SDS011;10545;36.536;23.064;2023-08-24T19:38:00;30.07;;;27.37;;
20770;SDS011;10545;36.536;23.064;2023-08-24T19:40:28;31.97;;;29.27;;
20770;SDS011;10545;36.536;23.064;2023-08-24T19:42:55;24.97;;;23.10;;
20770;SDS011;10545;36.536;23.064;2023-08-24T19:45:21;22.90;;;21.13;;
20770;SDS011;10545;36.536;23.064;2023-08-24T19:47:49;22.37;;;20.57;;
20770;SDS011;10545;36.536;23.064;2023-08-24T19:50:16;23.13;;;21.53;;
20770;SDS011;10545;36.536;23.064;2023-08-24T19:52:42;22.23;;;20.83;;
20770;SDS011;10545;36.536;23.064;2023-08-24T19:55:09;23.67;;;21.63;;
20770;SDS011;10545;36.536;23.064;2023-08-24T19:57:36;23.50;;;22.00;;
20770;SDS011;10545;36.536;23.064;2023-08-24T20:00:05;24.60;;;23.00;;
20770;SDS011;10545;36.536;23.064;2023-08-24T20:02:32;24.97;;;23.17;;
20770;SDS011;10545;36.536;23.064;2023-08-24T20:04:58;25.20;;;23.40;;
20770;SDS011;10545;36.536;23.064;2023-08-24T20:07:25;23.63;;;21.93;;
20770;SDS011;10545;36.536;23.064;2023-08-24T20:09:52;23.77;;;22.27;;
20770;SDS011;10545;36.536;23.064;2023-08-24T20:12:18;24.17;;;22.57;;
20770;SDS011;10545;36.536;23.064;2023-08-24T20:14:45;24.33;;;22.43;;
20770;SDS011;10545;36.536;23.064;2023-08-24T20:17:12;25.43;;;23.53;;
20770;SDS011;10545;36.536;23.064;2023-08-24T20:19:38;24.50;;;22.80;;
20770;SDS011;10545;36.536;23.064;2023-08-24T20:22:04;23.60;;;21.90;;
20770;SDS011;10545;36.536;23.064;2023-08-24T20:24:31;22.57;;;21.07;;
20770;SDS011;10545;36.536;23.064;2023-08-24T20:26:58;23.60;;;21.90;;
20770;SDS011;10545;36.536;23.064;2023-08-24T20:29:24;23.17;;;21.40;;
20770;SDS011;10545;36.536;23.064;2023-08-24T20:31:52;24.17;;;22.00;;
20770;SDS011;10545;36.536;23.064;2023-08-24T20:34:20;22.17;;;20.27;;
20770;SDS011;10545;36.536;23.064;2023-08-24T20:36:46;22.53;;;20.80;;
20770;SDS011;10545;36.536;23.064;2023-08-24T20:39:14;21.30;;;19.80;;
20770;SDS011;10545;36.536;23.064;2023-08-24T20:41:42;22.63;;;20.93;;
20770;SDS011;10545;36.536;23.064;2023-08-24T20:44:11;22.60;;;21.00;;
20770;SDS011;10545;36.536;23.064;2023-08-24T20:46:38;22.57;;;20.87;;
20770;SDS011;10545;36.536;23.064;2023-08-24T20:49:04;23.03;;;21.53;;
20770;SDS011;10545;36.536;23.064;2023-08-24T20:51:31;23.27;;;21.47;;
20770;SDS011;10545;36.536;23.064;2023-08-24T20:53:57;23.00;;;21.47;;
20770;SDS011;10545;36.536;23.064;2023-08-24T20:56:24;23.33;;;21.53;;
20770;SDS011;10545;36.536;23.064;2023-08-24T20:58:50;24.13;;;22.23;;
20770;SDS011;10545;36.536;23.064;2023-08-24T21:01:16;25.40;;;22.97;;
20770;SDS011;10545;36.536;23.064;2023-08-24T21:03:42;23.70;;;22.00;;
20770;SDS011;10545;36.536;23.064;2023-08-24T21:06:09;22.53;;;20.90;;
20770;SDS011;10545;36.536;23.064;2023-08-24T21:08:35;23.77;;;22.13;;
20770;SDS011;10545;36.536;23.064;2023-08-24T21:11:01;24.00;;;22.23;;
20770;SDS011;10545;36.536;23.064;2023-08-24T21:13:27;24.83;;;22.63;;
20770;SDS011;10545;36.536;23.064;2023-08-24T21:15:57;24.90;;;22.87;;
20770;SDS011;10545;36.536;23.064;2023-08-24T21:18:25;24.20;;;22.47;;
20770;SDS011;10545;36.536;23.064;2023-08-24T21:20:57;24.47;;;22.87;;
20770;SDS011;10545;36.536;23.064;2023-08-24T21:23:23;24.00;;;22.10;;
20770;SDS011;10545;36.536;23.064;2023-08-24T21:25:50;23.30;;;21.80;;
20770;SDS011;10545;36.536;23.064;2023-08-24T21:28:17;25.00;;;22.87;;
20770;SDS011;10545;36.536;23.064;2023-08-24T21:30:43;23.53;;;21.83;;
20770;SDS011;10545;36.536;23.064;2023-08-24T21:33:12;24.07;;;22.10;;
20770;SDS011;10545;36.536;23.064;2023-08-24T21:35:38;25.43;;;23.70;;
20770;SDS011;10545;36.536;23.064;2023-08-24T21:38:04;24.97;;;23.13;;
20770;SDS011;10545;36.536;23.064;2023-08-24T21:40:31;24.40;;;22.60;;
20770;SDS011;10545;36.536;23.064;2023-08-24T21:42:57;22.87;;;21.17;;
20770;SDS011;10545;36.536;23.064;2023-08-24T21:45:23;25.20;;;23.23;;
20770;SDS011;10545;36.536;23.064;2023-08-24T21:47:49;24.50;;;22.90;;
20770;SDS011;10545;36.536;23.064;2023-08-24T21:50:15;24.43;;;22.67;;
20770;SDS011;10545;36.536;23.064;2023-08-24T21:52:41;23.37;;;21.87;;
20770;SDS011;10545;36.536;23.064;2023-08-24T21:55:07;25.30;;;23.40;;
20770;SDS011;10545;36.536;23.064;2023-08-24T21:57:33;25.23;;;23.63;;
20770;SDS011;10545;36.536;23.064;2023-08-24T21:59:59;24.30;;;22.70;;
20770;SDS011;10545;36.536;23.064;2023-08-24T22:02:25;24.57;;;22.87;;
20770;SDS011;10545;36.536;23.064;2023-08-24T22:04:51;25.07;;;23.30;;
20770;SDS011;10545;36.536;23.064;2023-08-24T22:07:17;22.40;;;20.90;;
20770;SDS011;10545;36.536;23.064;2023-08-24T22:09:43;23.13;;;21.63;;
20770;SDS011;10545;36.536;23.064;2023-08-24T22:12:10;23.43;;;21.53;;
20770;SDS011;10545;36.536;23.064;2023-08-24T22:14:36;22.60;;;21.03;;
20770;SDS011;10545;36.536;23.064;2023-08-24T22:17:02;24.27;;;22.47;;
20770;SDS011;10545;36.536;23.064;2023-08-24T22:19:28;25.07;;;23.20;;
20770;SDS011;10545;36.536;23.064;2023-08-24T22:21:54;22.20;;;20.60;;
20770;SDS011;10545;36.536;23.064;2023-08-24T22:24:20;22.93;;;21.37;;
20770;SDS011;10545;36.536;23.064;2023-08-24T22:26:46;23.60;;;21.87;;
20770;SDS011;10545;36.536;23.064;2023-08-24T22:29:12;22.40;;;20.70;;
20770;SDS011;10545;36.536;23.064;2023-08-24T22:31:39;22.87;;;21.40;;
20770;SDS011;10545;36.536;23.064;2023-08-24T22:34:05;23.43;;;21.90;;
20770;SDS011;10545;36.536;23.064;2023-08-24T22:36:31;23.03;;;21.53;;
20770;SDS011;10545;36.536;23.064;2023-08-24T22:38:58;23.83;;;22.20;;
20770;SDS011;10545;36.536;23.064;2023-08-24T22:41:24;22.80;;;21.20;;
20770;SDS011;10545;36.536;23.064;2023-08-24T22:43:51;23.83;;;22.20;;
20770;SDS011;10545;36.536;23.064;2023-08-24T22:46:17;23.30;;;21.90;;
20770;SDS011;10545;36.536;23.064;2023-08-24T22:48:43;23.10;;;21.60;;
20770;SDS011;10545;36.536;23.064;2023-08-24T22:51:09;24.13;;;22.33;;
20770;SDS011;10545;36.536;23.064;2023-08-24T22:53:35;24.70;;;22.70;;
20770;SDS011;10545;36.536;23.064;2023-08-24T22:56:02;23.87;;;22.20;;
20770;SDS011;10545;36.536;23.064;2023-08-24T22:58:28;24.67;;;22.77;;
20770;SDS011;10545;36.536;23.064;2023-08-24T23:00:54;22.63;;;20.70;;
20770;SDS011;10545;36.536;23.064;2023-08-24T23:03:20;24.90;;;22.90;;
20770;SDS011;10545;36.536;23.064;2023-08-24T23:05:46;24.30;;;22.50;;
20770;SDS011;10545;36.536;23.064;2023-08-24T23:08:12;25.27;;;23.10;;
20770;SDS011;10545;36.536;23.064;2023-08-24T23:10:38;24.87;;;22.83;;
20770;SDS011;10545;36.536;23.064;2023-08-24T23:13:04;22.30;;;20.80;;
20770;SDS011;10545;36.536;23.064;2023-08-24T23:15:30;22.93;;;21.43;;
20770;SDS011;10545;36.536;23.064;2023-08-24T23:17:56;22.70;;;21.07;;
20770;SDS011;10545;36.536;23.064;2023-08-24T23:20:22;21.70;;;20.20;;